sensor_id;sensor_type;location;lat;lon;timestamp;pressure;altitude;pressure_sealevel;temperature;humidity
1926;BME280;964;42.606;23.588;2023-04-24T00:00:51;94285.75;;;30.43;21.81
1926;BME280;964;42.606;23.588;2023-04-24T00:03:17;94278.91;;;31.27;21.53
1926;BME280;964;42.606;23.588;2023-04-24T00:05:47;94264.44;;;32.62;20.62
1926;BME280;964;42.606;23.588;2023-04-24T00:08:14;94268.94;;;31.24;21.55
1926;BME280;964;42.606;23.588;2023-04-24T00:10:41;94264.66;;;29.37;22.85
1926;BME280;964;42.606;23.588;2023-04-24T00:13:07;94258.50;;;29.62;23.07
1926;BME280;964;42.606;23.588;2023-04-24T00:15:34;94262.34;;;28.95;24.12
1926;BME280;964;42.606;23.588;2023-04-24T00:18:01;94252.38;;;29.67;23.47
1926;BME280;964;42.606;23.588;2023-04-24T00:20:28;94241.94;;;30.38;22.91
1926;BME280;964;42.606;23.588;2023-04-24T00:22:57;94244.56;;;30.52;22.48
1926;BME280;964;42.606;23.588;2023-04-24T00:25:23;94238.19;;;29.63;23.17
1926;BME280;964;42.606;23.588;2023-04-24T00:27:50;94235.53;;;28.94;23.60
1926;BME280;964;42.606;23.588;2023-04-24T00:30:17;94239.22;;;27.88;24.22
1926;BME280;964;42.606;23.588;2023-04-24T00:32:43;94238.81;;;28.98;23.63
1926;BME280;964;42.606;23.588;2023-04-24T00:35:10;94240.38;;;28.69;23.57
1926;BME280;964;42.606;23.588;2023-04-24T00:37:37;94234.34;;;28.80;23.56
1926;BME280;964;42.606;23.588;2023-04-24T00:40:06;94229.69;;;29.21;23.44
1926;BME280;964;42.606;23.588;2023-04-24T00:42:33;94218.78;;;28.22;24.02
1926;BME280;964;42.606;23.588;2023-04-24T00:45:00;94227.03;;;28.42;24.05
1926;BME280;964;42.606;23.588;2023-04-24T00:47:29;94213.22;;;29.50;23.19
1926;BME280;964;42.606;23.588;2023-04-24T00:49:56;94228.16;;;28.50;24.13
1926;BME280;964;42.606;23.588;2023-04-24T00:52:23;94203.06;;;28.96;23.46
1926;BME280;964;42.606;23.588;2023-04-24T00:54:50;94216.34;;;28.24;24.60
1926;BME280;964;42.606;23.588;2023-04-24T00:57:18;94216.81;;;28.08;24.19
1926;BME280;964;42.606;23.588;2023-04-24T00:59:47;94206.53;;;29.31;23.05
1926;BME280;964;42.606;23.588;2023-04-24T01:02:13;94218.94;;;29.32;23.45
1926;BME280;964;42.606;23.588;2023-04-24T01:04:41;94213.56;;;29.84;23.01
1926;BME280;964;42.606;23.588;2023-04-24T01:07:08;94211.75;;;30.89;21.73
1926;BME280;964;42.606;23.588;2023-04-24T01:09:37;94196.69;;;31.64;21.66
1926;BME280;964;42.606;23.588;2023-04-24T01:12:04;94219.44;;;30.54;23.29
1926;BME280;964;42.606;23.588;2023-04-24T01:14:33;94223.59;;;30.18;23.68
1926;BME280;964;42.606;23.588;2023-04-24T01:17:00;94221.41;;;30.48;23.41
1926;BME280;964;42.606;23.588;2023-04-24T01:19:27;94224.97;;;30.59;23.20
1926;BME280;964;42.606;23.588;2023-04-24T01:21:53;94221.38;;;29.91;23.67
1926;BME280;964;42.606;23.588;2023-04-24T01:24:25;94217.16;;;30.84;22.93
1926;BME280;964;42.606;23.588;2023-04-24T01:26:51;94227.19;;;30.30;23.33
1926;BME280;964;42.606;23.588;2023-04-24T01:29:18;94223.47;;;29.81;23.84
1926;BME280;964;42.606;23.588;2023-04-24T01:31:45;94212.44;;;31.21;22.73
1926;BME280;964;42.606;23.588;2023-04-24T01:34:12;94212.47;;;30.90;22.76
1926;BME280;964;42.606;23.588;2023-04-24T01:36:39;94221.31;;;30.11;23.31
1926;BME280;964;42.606;23.588;2023-04-24T01:39:07;94207.13;;;31.54;21.94
1926;BME280;964;42.606;23.588;2023-04-24T01:41:36;94216.31;;;30.67;22.63
1926;BME280;964;42.606;23.588;2023-04-24T01:44:02;94217.00;;;30.30;23.47
1926;BME280;964;42.606;23.588;2023-04-24T01:46:29;94219.47;;;30.28;23.32
1926;BME280;964;42.606;23.588;2023-04-24T01:48:59;94210.00;;;30.92;22.65
1926;BME280;964;42.606;23.588;2023-04-24T01:51:26;94219.91;;;30.21;23.45
1926;BME280;964;42.606;23.588;2023-04-24T01:53:53;94205.53;;;30.89;22.69
1926;BME280;964;42.606;23.588;2023-04-24T01:56:21;94212.44;;;31.21;22.47
1926;BME280;964;42.606;23.588;2023-04-24T01:58:50;94209.50;;;30.25;23.31
1926;BME280;964;42.606;23.588;2023-04-24T02:01:19;94206.75;;;29.94;23.48
1926;BME280;964;42.606;23.588;2023-04-24T02:03:46;94193.47;;;30.70;23.39
1926;BME280;964;42.606;23.588;2023-04-24T02:06:13;94189.63;;;30.93;23.23
1926;BME280;964;42.606;23.588;2023-04-24T02:08:40;94174.75;;;31.53;22.25
1926;BME280;964;42.606;23.588;2023-04-24T02:11:08;94169.78;;;31.63;22.32
1926;BME280;964;42.606;23.588;2023-04-24T02:13:34;94178.22;;;31.53;22.50
1926;BME280;964;42.606;23.588;2023-04-24T02:16:03;94166.19;;;31.29;22.43
1926;BME280;964;42.606;23.588;2023-04-24T02:18:29;94179.50;;;30.67;22.93
1926;BME280;964;42.606;23.588;2023-04-24T02:20:56;94187.53;;;29.88;23.73
1926;BME280;964;42.606;23.588;2023-04-24T02:23:23;94186.41;;;28.94;24.67
1926;BME280;964;42.606;23.588;2023-04-24T02:25:52;94185.19;;;28.95;24.69
1926;BME280;964;42.606;23.588;2023-04-24T02:28:19;94187.25;;;26.76;27.37
1926;BME280;964;42.606;23.588;2023-04-24T02:30:45;94173.50;;;28.10;26.11
1926;BME280;964;42.606;23.588;2023-04-24T02:33:14;94185.75;;;28.99;24.80
1926;BME280;964;42.606;23.588;2023-04-24T02:35:41;94184.66;;;29.11;24.45
1926;BME280;964;42.606;23.588;2023-04-24T02:38:07;94172.19;;;30.48;23.12
1926;BME280;964;42.606;23.588;2023-04-24T02:40:34;94169.00;;;30.24;23.14
1926;BME280;964;42.606;23.588;2023-04-24T02:43:01;94173.97;;;27.94;25.71
1926;BME280;964;42.606;23.588;2023-04-24T02:45:27;94181.63;;;27.66;26.05
1926;BME280;964;42.606;23.588;2023-04-24T02:47:54;94175.97;;;27.16;26.87
1926;BME280;964;42.606;23.588;2023-04-24T02:50:22;94173.75;;;27.53;26.15
1926;BME280;964;42.606;23.588;2023-04-24T02:52:49;94170.50;;;27.02;26.55
1926;BME280;964;42.606;23.588;2023-04-24T02:55:16;94159.97;;;27.71;25.78
1926;BME280;964;42.606;23.588;2023-04-24T02:57:42;94163.00;;;27.11;26.42
1926;BME280;964;42.606;23.588;2023-04-24T03:00:10;94160.81;;;27.77;25.92
1926;BME280;964;42.606;23.588;2023-04-24T03:02:37;94153.50;;;28.62;25.03
1926;BME280;964;42.606;23.588;2023-04-24T03:05:04;94145.34;;;29.23;24.46
1926;BME280;964;42.606;23.588;2023-04-24T03:07:32;94159.59;;;27.78;25.61
1926;BME280;964;42.606;23.588;2023-04-24T03:09:59;94162.03;;;29.25;24.27
1926;BME280;964;42.606;23.588;2023-04-24T03:12:26;94161.19;;;28.29;25.22
1926;BME280;964;42.606;23.588;2023-04-24T03:14:52;94169.34;;;27.85;25.68
1926;BME280;964;42.606;23.588;2023-04-24T03:17:19;94164.50;;;28.18;25.37
1926;BME280;964;42.606;23.588;2023-04-24T03:19:46;94171.69;;;27.63;25.68
1926;BME280;964;42.606;23.588;2023-04-24T03:22:12;94168.84;;;28.95;24.66
1926;BME280;964;42.606;23.588;2023-04-24T03:24:40;94169.47;;;30.22;23.66
1926;BME280;964;42.606;23.588;2023-04-24T03:27:07;94171.03;;;29.77;23.68
1926;BME280;964;42.606;23.588;2023-04-24T03:29:34;94170.19;;;29.45;24.06
1926;BME280;964;42.606;23.588;2023-04-24T03:32:00;94169.28;;;30.31;23.41
1926;BME280;964;42.606;23.588;2023-04-24T03:34:27;94166.56;;;30.68;22.87
1926;BME280;964;42.606;23.588;2023-04-24T03:36:54;94162.66;;;30.75;22.83
1926;BME280;964;42.606;23.588;2023-04-24T03:39:20;94161.16;;;30.74;23.10
1926;BME280;964;42.606;23.588;2023-04-24T03:41:48;94159.25;;;31.44;22.42
1926;BME280;964;42.606;23.588;2023-04-24T03:44:15;94170.22;;;30.54;23.07
1926;BME280;964;42.606;23.588;2023-04-24T03:46:42;94179.59;;;29.64;24.12
1926;BME280;964;42.606;23.588;2023-04-24T03:49:08;94186.34;;;30.21;23.57
1926;BME280;964;42.606;23.588;2023-04-24T03:51:35;94173.88;;;31.30;22.46
1926;BME280;964;42.606;23.588;2023-04-24T03:54:02;94174.50;;;31.56;22.75
1926;BME280;964;42.606;23.588;2023-04-24T03:56:29;94176.06;;;31.80;22.71
1926;BME280;964;42.606;23.588;2023-04-24T03:58:57;94186.50;;;31.76;22.55
1926;BME280;964;42.606;23.588;2023-04-24T04:01:23;94192.59;;;30.95;22.97
1926;BME280;964;42.606;23.588;2023-04-24T04:03:50;94178.94;;;30.95;23.28
1926;BME280;964;42.606;23.588;2023-04-24T04:06:16;94175.63;;;31.28;22.71
1926;BME280;964;42.606;23.588;2023-04-24T04:08:44;94181.75;;;31.06;23.35
1926;BME280;964;42.606;23.588;2023-04-24T04:11:11;94192.22;;;31.13;22.80
1926;BME280;964;42.606;23.588;2023-04-24T04:13:38;94183.84;;;31.33;23.00
1926;BME280;964;42.606;23.588;2023-04-24T04:16:06;94192.69;;;31.59;23.13
1926;BME280;964;42.606;23.588;2023-04-24T04:18:33;94177.03;;;31.66;22.81
1926;BME280;964;42.606;23.588;2023-04-24T04:21:00;94183.25;;;31.72;22.87
1926;BME280;964;42.606;23.588;2023-04-24T04:26:57;94183.31;;;31.94;22.64
1926;BME280;964;42.606;23.588;2023-04-24T04:29:24;94182.84;;;32.29;22.35
1926;BME280;964;42.606;23.588;2023-04-24T04:31:52;94194.47;;;31.74;22.39
1926;BME280;964;42.606;23.588;2023-04-24T04:34:20;94191.47;;;31.72;22.92
1926;BME280;964;42.606;23.588;2023-04-24T04:36:47;94190.09;;;32.37;21.87
1926;BME280;964;42.606;23.588;2023-04-24T04:39:15;94189.59;;;32.33;22.51
1926;BME280;964;42.606;23.588;2023-04-24T04:41:44;94193.59;;;32.66;21.89
1926;BME280;964;42.606;23.588;2023-04-24T04:44:11;94192.50;;;33.02;21.61
1926;BME280;964;42.606;23.588;2023-04-24T04:46:39;94191.31;;;32.75;22.09
1926;BME280;964;42.606;23.588;2023-04-24T04:49:08;94198.59;;;32.67;21.91
1926;BME280;964;42.606;23.588;2023-04-24T04:51:36;94185.78;;;32.97;22.00
1926;BME280;964;42.606;23.588;2023-04-24T04:54:03;94181.84;;;32.82;21.67
1926;BME280;964;42.606;23.588;2023-04-24T04:56:29;94180.47;;;33.27;21.62
1926;BME280;964;42.606;23.588;2023-04-24T04:58:56;94189.81;;;33.60;21.42
1926;BME280;964;42.606;23.588;2023-04-24T05:01:24;94188.44;;;33.36;21.51
1926;BME280;964;42.606;23.588;2023-04-24T05:03:52;94189.59;;;32.78;22.62
1926;BME280;964;42.606;23.588;2023-04-24T05:06:20;94192.03;;;33.72;21.82
1926;BME280;964;42.606;23.588;2023-04-24T05:08:47;94188.56;;;34.07;20.95
1926;BME280;964;42.606;23.588;2023-04-24T05:11:15;94180.53;;;34.20;21.48
1926;BME280;964;42.606;23.588;2023-04-24T05:13:41;94193.94;;;33.36;22.07
1926;BME280;964;42.606;23.588;2023-04-24T05:16:08;94189.28;;;34.19;21.53
1926;BME280;964;42.606;23.588;2023-04-24T05:18:35;94197.91;;;33.98;21.55
1926;BME280;964;42.606;23.588;2023-04-24T05:21:02;94195.13;;;33.46;21.98
1926;BME280;964;42.606;23.588;2023-04-24T05:23:30;94210.50;;;32.92;22.37
1926;BME280;964;42.606;23.588;2023-04-24T05:25:56;94209.81;;;32.75;22.78
1926;BME280;964;42.606;23.588;2023-04-24T05:28:23;94201.56;;;33.60;21.64
1926;BME280;964;42.606;23.588;2023-04-24T05:30:53;94206.22;;;33.30;22.02
1926;BME280;964;42.606;23.588;2023-04-24T05:33:20;94209.63;;;33.41;22.02
1926;BME280;964;42.606;23.588;2023-04-24T05:35:47;94209.50;;;33.12;21.81
1926;BME280;964;42.606;23.588;2023-04-24T05:38:14;94196.78;;;33.72;21.86
1926;BME280;964;42.606;23.588;2023-04-24T05:40:44;94211.56;;;34.10;21.66
1926;BME280;964;42.606;23.588;2023-04-24T05:43:11;94214.19;;;33.91;21.58
1926;BME280;964;42.606;23.588;2023-04-24T05:45:38;94213.84;;;34.06;21.72
1926;BME280;964;42.606;23.588;2023-04-24T05:48:04;94206.59;;;34.43;21.11
1926;BME280;964;42.606;23.588;2023-04-24T05:50:31;94201.50;;;34.83;20.79
1926;BME280;964;42.606;23.588;2023-04-24T05:52:58;94199.97;;;34.87;20.51
1926;BME280;964;42.606;23.588;2023-04-24T05:55:26;94195.09;;;35.48;19.98
1926;BME280;964;42.606;23.588;2023-04-24T05:57:55;94193.38;;;35.45;20.13
1926;BME280;964;42.606;23.588;2023-04-24T06:00:21;94191.19;;;35.62;20.13
1926;BME280;964;42.606;23.588;2023-04-24T06:02:48;94199.22;;;35.35;19.73
1926;BME280;964;42.606;23.588;2023-04-24T06:05:15;94190.44;;;35.80;19.82
1926;BME280;964;42.606;23.588;2023-04-24T06:07:42;94192.00;;;35.94;19.85
1926;BME280;964;42.606;23.588;2023-04-24T06:10:10;94186.69;;;35.96;19.91
1926;BME280;964;42.606;23.588;2023-04-24T06:12:37;94194.03;;;35.08;20.38
1926;BME280;964;42.606;23.588;2023-04-24T06:15:06;94199.91;;;35.23;20.24
1926;BME280;964;42.606;23.588;2023-04-24T06:17:33;94182.63;;;36.34;20.11
1926;BME280;964;42.606;23.588;2023-04-24T06:20:00;94179.63;;;36.32;20.06
1926;BME280;964;42.606;23.588;2023-04-24T06:22:26;94185.06;;;36.70;19.68
1926;BME280;964;42.606;23.588;2023-04-24T06:24:53;94180.41;;;36.91;19.30
1926;BME280;964;42.606;23.588;2023-04-24T06:27:20;94186.38;;;36.82;19.42
1926;BME280;964;42.606;23.588;2023-04-24T06:29:46;94183.16;;;36.65;20.00
1926;BME280;964;42.606;23.588;2023-04-24T06:32:21;94184.00;;;36.28;20.31
1926;BME280;964;42.606;23.588;2023-04-24T06:34:48;94176.41;;;35.97;20.37
1926;BME280;964;42.606;23.588;2023-04-24T06:37:14;94175.75;;;35.90;20.24
1926;BME280;964;42.606;23.588;2023-04-24T06:39:41;94177.38;;;36.50;19.76
1926;BME280;964;42.606;23.588;2023-04-24T06:42:08;94182.38;;;37.09;18.91
1926;BME280;964;42.606;23.588;2023-04-24T06:44:35;94188.41;;;36.50;19.66
1926;BME280;964;42.606;23.588;2023-04-24T06:47:06;94186.47;;;36.45;20.05
1926;BME280;964;42.606;23.588;2023-04-24T06:49:34;94182.75;;;36.87;19.97
1926;BME280;964;42.606;23.588;2023-04-24T06:52:01;94185.78;;;37.15;19.83
1926;BME280;964;42.606;23.588;2023-04-24T06:54:28;94172.91;;;38.04;18.88
1926;BME280;964;42.606;23.588;2023-04-24T06:56:55;94174.91;;;38.58;18.28
1926;BME280;964;42.606;23.588;2023-04-24T06:59:22;94173.13;;;37.93;18.99
1926;BME280;964;42.606;23.588;2023-04-24T07:01:49;94174.88;;;37.96;18.95
1926;BME280;964;42.606;23.588;2023-04-24T07:04:16;94169.44;;;38.24;18.68
1926;BME280;964;42.606;23.588;2023-04-24T07:06:44;94180.34;;;38.43;19.07
1926;BME280;964;42.606;23.588;2023-04-24T07:09:11;94170.81;;;38.72;18.52
1926;BME280;964;42.606;23.588;2023-04-24T07:11:38;94175.16;;;38.40;18.37
1926;BME280;964;42.606;23.588;2023-04-24T07:14:06;94176.59;;;38.41;18.71
1926;BME280;964;42.606;23.588;2023-04-24T07:16:32;94176.38;;;38.18;18.83
1926;BME280;964;42.606;23.588;2023-04-24T07:18:59;94163.28;;;39.30;18.56
1926;BME280;964;42.606;23.588;2023-04-24T07:21:26;94173.47;;;37.56;19.41
1926;BME280;964;42.606;23.588;2023-04-24T07:23:54;94169.59;;;38.40;18.83
1926;BME280;964;42.606;23.588;2023-04-24T07:26:21;94165.28;;;37.97;19.08
1926;BME280;964;42.606;23.588;2023-04-24T07:28:48;94167.84;;;38.99;18.03
1926;BME280;964;42.606;23.588;2023-04-24T07:31:14;94170.25;;;38.74;18.26
1926;BME280;964;42.606;23.588;2023-04-24T07:33:41;94165.06;;;37.95;18.92
1926;BME280;964;42.606;23.588;2023-04-24T07:36:08;94155.03;;;38.88;18.33
1926;BME280;964;42.606;23.588;2023-04-24T07:38:40;94157.75;;;38.60;18.12
1926;BME280;964;42.606;23.588;2023-04-24T07:41:08;94151.84;;;38.01;18.60
1926;BME280;964;42.606;23.588;2023-04-24T07:43:35;94157.56;;;38.58;18.28
1926;BME280;964;42.606;23.588;2023-04-24T07:46:02;94158.50;;;37.85;18.84
1926;BME280;964;42.606;23.588;2023-04-24T07:48:28;94152.41;;;38.20;19.00
1926;BME280;964;42.606;23.588;2023-04-24T07:50:55;94154.38;;;38.12;19.01
1926;BME280;964;42.606;23.588;2023-04-24T07:53:22;94152.06;;;39.14;18.23
1926;BME280;964;42.606;23.588;2023-04-24T07:55:48;94152.25;;;39.45;17.62
1926;BME280;964;42.606;23.588;2023-04-24T07:58:23;94134.53;;;40.06;17.32
1926;BME280;964;42.606;23.588;2023-04-24T08:00:50;94134.03;;;40.53;17.39
1926;BME280;964;42.606;23.588;2023-04-24T08:03:17;94136.03;;;40.23;17.58
1926;BME280;964;42.606;23.588;2023-04-24T08:05:45;94132.56;;;40.90;17.42
1926;BME280;964;42.606;23.588;2023-04-24T08:08:12;94140.34;;;40.99;17.33
1926;BME280;964;42.606;23.588;2023-04-24T08:10:39;94139.16;;;40.11;17.51
1926;BME280;964;42.606;23.588;2023-04-24T08:13:05;94140.41;;;41.47;17.36
1926;BME280;964;42.606;23.588;2023-04-24T08:15:34;94137.84;;;41.89;16.64
1926;BME280;964;42.606;23.588;2023-04-24T08:18:00;94123.53;;;42.25;16.69
1926;BME280;964;42.606;23.588;2023-04-24T08:20:27;94124.03;;;42.55;15.72
1926;BME280;964;42.606;23.588;2023-04-24T08:22:54;94127.88;;;42.11;16.51
1926;BME280;964;42.606;23.588;2023-04-24T08:25:21;94120.81;;;42.42;16.70
1926;BME280;964;42.606;23.588;2023-04-24T08:27:50;94121.09;;;42.53;17.14
1926;BME280;964;42.606;23.588;2023-04-24T08:30:16;94115.69;;;42.80;16.45
1926;BME280;964;42.606;23.588;2023-04-24T08:32:45;94124.13;;;41.43;16.93
1926;BME280;964;42.606;23.588;2023-04-24T08:35:11;94109.22;;;42.95;16.98
1926;BME280;964;42.606;23.588;2023-04-24T08:37:38;94105.34;;;42.24;17.00
1926;BME280;964;42.606;23.588;2023-04-24T08:40:13;94095.72;;;43.09;16.85
1926;BME280;964;42.606;23.588;2023-04-24T08:42:41;94093.97;;;43.47;15.91
1926;BME280;964;42.606;23.588;2023-04-24T08:45:10;94092.25;;;43.52;16.05
1926;BME280;964;42.606;23.588;2023-04-24T08:47:38;94094.81;;;43.06;16.25
1926;BME280;964;42.606;23.588;2023-04-24T08:50:08;94088.63;;;43.25;15.85
1926;BME280;964;42.606;23.588;2023-04-24T08:52:35;94082.25;;;43.15;16.53
1926;BME280;964;42.606;23.588;2023-04-24T08:55:03;94078.50;;;42.36;17.52
1926;BME280;964;42.606;23.588;2023-04-24T08:57:33;94084.03;;;42.43;17.21
1926;BME280;964;42.606;23.588;2023-04-24T09:00:01;94071.97;;;44.32;15.83
1926;BME280;964;42.606;23.588;2023-04-24T09:02:28;94075.44;;;43.86;15.78
1926;BME280;964;42.606;23.588;2023-04-24T09:04:57;94062.97;;;44.24;16.36
1926;BME280;964;42.606;23.588;2023-04-24T09:07:27;94052.88;;;45.32;15.35
1926;BME280;964;42.606;23.588;2023-04-24T09:09:56;94055.97;;;44.42;15.00
1926;BME280;964;42.606;23.588;2023-04-24T09:12:23;94052.09;;;44.93;15.36
1926;BME280;964;42.606;23.588;2023-04-24T09:14:50;94053.97;;;44.16;15.05
1926;BME280;964;42.606;23.588;2023-04-24T09:17:17;94056.81;;;43.28;15.73
1926;BME280;964;42.606;23.588;2023-04-24T09:19:44;94049.16;;;43.72;16.61
1926;BME280;964;42.606;23.588;2023-04-24T09:22:12;94038.63;;;44.43;15.39
1926;BME280;964;42.606;23.588;2023-04-24T09:24:40;94042.53;;;43.24;16.41
1926;BME280;964;42.606;23.588;2023-04-24T09:27:07;94050.91;;;43.24;16.58
1926;BME280;964;42.606;23.588;2023-04-24T09:29:34;94050.25;;;43.50;15.55
1926;BME280;964;42.606;23.588;2023-04-24T09:32:18;94046.13;;;43.34;15.59
1926;BME280;964;42.606;23.588;2023-04-24T09:34:47;94039.00;;;43.94;15.91
1926;BME280;964;42.606;23.588;2023-04-24T09:37:27;94043.72;;;43.91;15.70
1926;BME280;964;42.606;23.588;2023-04-24T09:40:09;94032.28;;;44.99;15.11
1926;BME280;964;42.606;23.588;2023-04-24T09:42:37;94021.75;;;45.57;15.42
1926;BME280;964;42.606;23.588;2023-04-24T09:45:08;94018.97;;;44.89;15.66
1926;BME280;964;42.606;23.588;2023-04-24T09:47:36;94015.19;;;45.14;13.96
1926;BME280;964;42.606;23.588;2023-04-24T09:50:09;94014.75;;;46.27;13.95
1926;BME280;964;42.606;23.588;2023-04-24T09:52:40;94011.56;;;47.27;13.38
1926;BME280;964;42.606;23.588;2023-04-24T09:55:13;94002.69;;;47.09;14.01
1926;BME280;964;42.606;23.588;2023-04-24T09:57:47;94009.16;;;45.87;14.25
1926;BME280;964;42.606;23.588;2023-04-24T10:00:18;93998.16;;;46.10;14.05
1926;BME280;964;42.606;23.588;2023-04-24T10:02:44;94000.75;;;44.88;15.06
1926;BME280;964;42.606;23.588;2023-04-24T10:05:11;93996.63;;;45.09;15.37
1926;BME280;964;42.606;23.588;2023-04-24T10:07:38;93995.50;;;45.62;14.26
1926;BME280;964;42.606;23.588;2023-04-24T10:10:05;94002.28;;;44.53;15.23
1926;BME280;964;42.606;23.588;2023-04-24T10:12:34;94001.97;;;45.74;14.22
1926;BME280;964;42.606;23.588;2023-04-24T10:15:02;93995.28;;;46.50;14.64
1926;BME280;964;42.606;23.588;2023-04-24T10:17:31;93989.91;;;46.12;14.15
1926;BME280;964;42.606;23.588;2023-04-24T10:19:59;93987.34;;;46.68;13.76
1926;BME280;964;42.606;23.588;2023-04-24T10:22:28;93981.22;;;46.60;13.87
1926;BME280;964;42.606;23.588;2023-04-24T10:24:55;93986.09;;;45.48;14.43
1926;BME280;964;42.606;23.588;2023-04-24T10:27:24;93984.97;;;45.31;14.52
1926;BME280;964;42.606;23.588;2023-04-24T10:29:55;93979.19;;;46.93;14.70
1926;BME280;964;42.606;23.588;2023-04-24T10:32:22;93987.41;;;46.37;13.88
1926;BME280;964;42.606;23.588;2023-04-24T10:34:48;93983.34;;;45.19;15.20
1926;BME280;964;42.606;23.588;2023-04-24T10:37:15;93972.88;;;46.50;13.84
1926;BME280;964;42.606;23.588;2023-04-24T10:39:42;93967.38;;;46.73;13.83
1926;BME280;964;42.606;23.588;2023-04-24T10:42:14;93958.16;;;46.40;14.32
1926;BME280;964;42.606;23.588;2023-04-24T10:44:41;93960.66;;;45.34;14.67
1926;BME280;964;42.606;23.588;2023-04-24T10:47:14;93940.72;;;45.90;14.37
1926;BME280;964;42.606;23.588;2023-04-24T10:49:40;93950.22;;;45.34;13.92
1926;BME280;964;42.606;23.588;2023-04-24T10:52:09;93948.78;;;44.66;14.66
1926;BME280;964;42.606;23.588;2023-04-24T10:54:40;93940.13;;;46.43;13.85
1926;BME280;964;42.606;23.588;2023-04-24T10:57:25;93943.81;;;45.94;13.58
1926;BME280;964;42.606;23.588;2023-04-24T11:00:15;93939.75;;;46.58;13.26
1926;BME280;964;42.606;23.588;2023-04-24T11:02:46;93935.94;;;46.54;13.08
1926;BME280;964;42.606;23.588;2023-04-24T11:05:16;93944.72;;;45.46;14.25
1926;BME280;964;42.606;23.588;2023-04-24T11:08:11;93931.97;;;45.64;13.15
1926;BME280;964;42.606;23.588;2023-04-24T11:10:39;93934.03;;;46.56;13.48
1926;BME280;964;42.606;23.588;2023-04-24T11:13:07;93915.78;;;47.00;13.23
1926;BME280;964;42.606;23.588;2023-04-24T11:15:34;93910.09;;;47.65;13.18
1926;BME280;964;42.606;23.588;2023-04-24T11:18:51;93914.53;;;46.06;14.12
1926;BME280;964;42.606;23.588;2023-04-24T11:21:19;93916.09;;;45.88;14.11
1926;BME280;964;42.606;23.588;2023-04-24T11:23:46;93898.97;;;46.78;13.24
1926;BME280;964;42.606;23.588;2023-04-24T11:26:18;93904.63;;;46.15;14.15
1926;BME280;964;42.606;23.588;2023-04-24T11:28:46;93900.03;;;46.19;13.88
1926;BME280;964;42.606;23.588;2023-04-24T11:31:35;93886.19;;;45.91;13.52
1926;BME280;964;42.606;23.588;2023-04-24T11:34:09;93899.41;;;45.19;14.22
1926;BME280;964;42.606;23.588;2023-04-24T11:36:36;93893.13;;;44.99;14.78
1926;BME280;964;42.606;23.588;2023-04-24T11:39:03;93874.44;;;44.63;13.95
1926;BME280;964;42.606;23.588;2023-04-24T11:41:30;93895.31;;;43.05;14.34
1926;BME280;964;42.606;23.588;2023-04-24T11:43:57;93898.72;;;42.69;14.71
1926;BME280;964;42.606;23.588;2023-04-24T11:46:27;93902.97;;;42.70;15.38
1926;BME280;964;42.606;23.588;2023-04-24T11:48:54;93910.00;;;42.20;15.66
1926;BME280;964;42.606;23.588;2023-04-24T11:51:23;93913.13;;;41.25;15.68
1926;BME280;964;42.606;23.588;2023-04-24T11:53:50;93922.16;;;40.53;16.89
1926;BME280;964;42.606;23.588;2023-04-24T11:56:17;93922.19;;;40.38;16.49
1926;BME280;964;42.606;23.588;2023-04-24T11:58:45;93928.34;;;40.29;16.60
1926;BME280;964;42.606;23.588;2023-04-24T12:01:12;93944.88;;;38.64;19.79
1926;BME280;964;42.606;23.588;2023-04-24T12:03:39;94019.59;;;35.18;23.40
1926;BME280;964;42.606;23.588;2023-04-24T12:06:09;94028.41;;;34.25;24.98
1926;BME280;964;42.606;23.588;2023-04-24T12:08:38;94052.47;;;32.22;28.42
1926;BME280;964;42.606;23.588;2023-04-24T12:11:06;94058.09;;;32.69;28.28
1926;BME280;964;42.606;23.588;2023-04-24T12:13:33;94053.06;;;34.07;27.21
1926;BME280;964;42.606;23.588;2023-04-24T12:16:02;94030.19;;;34.71;26.49
1926;BME280;964;42.606;23.588;2023-04-24T12:18:29;94021.69;;;36.53;25.44
1926;BME280;964;42.606;23.588;2023-04-24T12:21:14;94001.09;;;36.27;27.13
1926;BME280;964;42.606;23.588;2023-04-24T12:23:44;93992.63;;;33.71;28.17
1926;BME280;964;42.606;23.588;2023-04-24T12:26:11;93959.91;;;36.29;25.62
1926;BME280;964;42.606;23.588;2023-04-24T12:28:39;93957.78;;;36.22;27.62
1926;BME280;964;42.606;23.588;2023-04-24T12:31:06;93957.41;;;37.59;25.70
1926;BME280;964;42.606;23.588;2023-04-24T12:33:34;93937.09;;;37.98;26.78
1926;BME280;964;42.606;23.588;2023-04-24T12:36:01;93929.38;;;37.55;27.68
1926;BME280;964;42.606;23.588;2023-04-24T12:38:28;93922.13;;;38.29;26.51
1926;BME280;964;42.606;23.588;2023-04-24T12:41:05;93906.31;;;40.00;25.92
1926;BME280;964;42.606;23.588;2023-04-24T12:43:32;93900.34;;;39.05;24.00
1926;BME280;964;42.606;23.588;2023-04-24T12:45:59;93898.56;;;39.91;23.37
1926;BME280;964;42.606;23.588;2023-04-24T12:48:26;93906.72;;;39.66;23.95
1926;BME280;964;42.606;23.588;2023-04-24T12:50:52;93908.50;;;39.26;24.33
1926;BME280;964;42.606;23.588;2023-04-24T12:53:20;93917.81;;;37.44;23.97
1926;BME280;964;42.606;23.588;2023-04-24T12:55:47;93927.09;;;38.52;25.37
1926;BME280;964;42.606;23.588;2023-04-24T12:58:19;93936.88;;;38.96;26.08
1926;BME280;964;42.606;23.588;2023-04-24T13:00:46;93940.34;;;38.46;25.01
1926;BME280;964;42.606;23.588;2023-04-24T13:03:13;93958.56;;;37.85;25.28
1926;BME280;964;42.606;23.588;2023-04-24T13:05:40;93962.41;;;35.88;25.25
1926;BME280;964;42.606;23.588;2023-04-24T13:08:07;93956.72;;;36.38;25.06
1926;BME280;964;42.606;23.588;2023-04-24T13:10:34;93933.59;;;34.69;26.79
1926;BME280;964;42.606;23.588;2023-04-24T13:13:01;93917.38;;;34.84;27.24
1926;BME280;964;42.606;23.588;2023-04-24T13:15:29;93905.69;;;34.97;26.61
1926;BME280;964;42.606;23.588;2023-04-24T13:17:55;93883.22;;;37.09;25.68
1926;BME280;964;42.606;23.588;2023-04-24T13:20:22;93871.19;;;37.48;25.78
1926;BME280;964;42.606;23.588;2023-04-24T13:22:49;93852.34;;;38.23;24.94
1926;BME280;964;42.606;23.588;2023-04-24T13:25:15;93848.53;;;38.34;24.76
1926;BME280;964;42.606;23.588;2023-04-24T13:27:43;93848.81;;;38.59;25.23
1926;BME280;964;42.606;23.588;2023-04-24T13:30:11;93838.16;;;37.91;25.95